sensor_id;sensor_type;location;lat;lon;timestamp;pressure;altitude;pressure_sealevel;temperature;humidity
10712;BME280;5407;51.234;6.804;2023-06-14T00:01:07;100829.59;;;26.07;30.35
10712;BME280;5407;51.234;6.804;2023-06-14T00:03:36;100830.38;;;25.95;30.85
10712;BME280;5407;51.234;6.804;2023-06-14T00:06:04;100839.34;;;25.99;30.32
10712;BME280;5407;51.234;6.804;2023-06-14T00:08:31;100847.53;;;26.02;30.63
10712;BME280;5407;51.234;6.804;2023-06-14T00:10:58;100851.34;;;25.80;30.55
10712;BME280;5407;51.234;6.804;2023-06-14T00:13:25;100848.72;;;25.04;31.74
10712;BME280;5407;51.234;6.804;2023-06-14T00:15:52;100847.78;;;25.79;30.65
10712;BME280;5407;51.234;6.804;2023-06-14T00:18:20;100856.16;;;25.23;31.88
10712;BME280;5407;51.234;6.804;2023-06-14T00:20:51;100850.00;;;25.31;31.50
10712;BME280;5407;51.234;6.804;2023-06-14T00:23:17;100849.41;;;25.93;30.94
10712;BME280;5407;51.234;6.804;2023-06-14T00:25:44;100849.03;;;24.77;31.94
10712;BME280;5407;51.234;6.804;2023-06-14T00:28:11;100844.34;;;25.63;31.27
10712;BME280;5407;51.234;6.804;2023-06-14T00:30:38;100855.00;;;25.77;31.08
10712;BME280;5407;51.234;6.804;2023-06-14T00:33:05;100853.72;;;26.19;30.40
10712;BME280;5407;51.234;6.804;2023-06-14T00:35:32;100857.06;;;25.60;31.08
10712;BME280;5407;51.234;6.804;2023-06-14T00:38:00;100850.72;;;25.19;31.89
10712;BME280;5407;51.234;6.804;2023-06-14T00:40:27;100860.81;;;25.10;32.16
10712;BME280;5407;51.234;6.804;2023-06-14T00:42:54;100865.16;;;25.80;31.33
10712;BME280;5407;51.234;6.804;2023-06-14T00:45:20;100866.78;;;26.18;30.77
10712;BME280;5407;51.234;6.804;2023-06-14T00:47:47;100865.47;;;25.69;31.29
10712;BME280;5407;51.234;6.804;2023-06-14T00:50:18;100859.31;;;25.37;31.97
10712;BME280;5407;51.234;6.804;2023-06-14T00:52:47;100867.47;;;25.40;31.87
10712;BME280;5407;51.234;6.804;2023-06-14T00:55:16;100859.00;;;25.19;31.66
10712;BME280;5407;51.234;6.804;2023-06-14T00:57:44;100858.56;;;25.21;31.81
10712;BME280;5407;51.234;6.804;2023-06-14T01:00:13;100866.75;;;25.08;32.07
10712;BME280;5407;51.234;6.804;2023-06-14T01:02:40;100869.19;;;25.06;32.09
10712;BME280;5407;51.234;6.804;2023-06-14T01:05:09;100869.50;;;25.24;31.65
10712;BME280;5407;51.234;6.804;2023-06-14T01:07:51;100864.59;;;25.16;31.80
10712;BME280;5407;51.234;6.804;2023-06-14T01:10:32;100868.28;;;25.25;31.79
10712;BME280;5407;51.234;6.804;2023-06-14T01:13:08;100869.59;;;25.05;32.10
10712;BME280;5407;51.234;6.804;2023-06-14T01:15:38;100873.09;;;24.93;32.24
10712;BME280;5407;51.234;6.804;2023-06-14T01:18:08;100870.69;;;24.79;32.66
10712;BME280;5407;51.234;6.804;2023-06-14T01:20:43;100871.25;;;25.02;32.34
10712;BME280;5407;51.234;6.804;2023-06-14T01:23:14;100872.47;;;25.01;32.11
10712;BME280;5407;51.234;6.804;2023-06-14T01:25:41;100869.03;;;24.97;32.50
10712;BME280;5407;51.234;6.804;2023-06-14T01:28:11;100870.34;;;25.37;31.74
10712;BME280;5407;51.234;6.804;2023-06-14T01:30:41;100869.03;;;24.97;32.43
10712;BME280;5407;51.234;6.804;2023-06-14T01:33:11;100867.59;;;24.77;32.69
10712;BME280;5407;51.234;6.804;2023-06-14T01:35:39;100864.75;;;24.64;32.71
10712;BME280;5407;51.234;6.804;2023-06-14T01:38:06;100865.44;;;24.52;32.99
10712;BME280;5407;51.234;6.804;2023-06-14T01:40:36;100869.63;;;24.89;32.28
10712;BME280;5407;51.234;6.804;2023-06-14T01:43:04;100872.72;;;25.07;32.17
10712;BME280;5407;51.234;6.804;2023-06-14T01:45:32;100867.69;;;24.57;32.49
10712;BME280;5407;51.234;6.804;2023-06-14T01:48:00;100862.84;;;24.61;32.57
10712;BME280;5407;51.234;6.804;2023-06-14T01:50:28;100872.09;;;24.71;32.53
10712;BME280;5407;51.234;6.804;2023-06-14T01:52:56;100875.00;;;24.64;32.53
10712;BME280;5407;51.234;6.804;2023-06-14T01:55:23;100871.72;;;24.53;32.82
10712;BME280;5407;51.234;6.804;2023-06-14T01:57:54;100865.59;;;24.61;32.61
10712;BME280;5407;51.234;6.804;2023-06-14T02:00:21;100869.16;;;24.26;33.37
10712;BME280;5407;51.234;6.804;2023-06-14T02:02:51;100860.72;;;24.17;33.52
10712;BME280;5407;51.234;6.804;2023-06-14T02:05:18;100868.53;;;24.54;33.22
10712;BME280;5407;51.234;6.804;2023-06-14T02:07:45;100871.84;;;24.46;33.22
10712;BME280;5407;51.234;6.804;2023-06-14T02:10:15;100866.19;;;24.85;32.76
10712;BME280;5407;51.234;6.804;2023-06-14T02:12:43;100864.91;;;24.41;33.33
10712;BME280;5407;51.234;6.804;2023-06-14T02:15:11;100858.47;;;24.12;33.74
10712;BME280;5407;51.234;6.804;2023-06-14T02:17:42;100861.41;;;24.21;33.87
10712;BME280;5407;51.234;6.804;2023-06-14T02:20:10;100862.50;;;24.75;33.28
10712;BME280;5407;51.234;6.804;2023-06-14T02:22:37;100870.88;;;25.16;32.44
10712;BME280;5407;51.234;6.804;2023-06-14T02:25:07;100869.28;;;25.19;32.36
10712;BME280;5407;51.234;6.804;2023-06-14T02:27:34;100869.03;;;24.97;33.16
10712;BME280;5407;51.234;6.804;2023-06-14T02:30:03;100865.06;;;24.98;32.60
10712;BME280;5407;51.234;6.804;2023-06-14T02:32:33;100865.56;;;25.09;32.61
10712;BME280;5407;51.234;6.804;2023-06-14T02:35:01;100868.16;;;24.36;33.76
10712;BME280;5407;51.234;6.804;2023-06-14T02:37:28;100866.81;;;24.92;32.90
10712;BME280;5407;51.234;6.804;2023-06-14T02:39:55;100867.72;;;24.22;33.82
10712;BME280;5407;51.234;6.804;2023-06-14T02:42:23;100864.56;;;24.04;33.97
10712;BME280;5407;51.234;6.804;2023-06-14T02:44:49;100864.84;;;24.09;33.99
10712;BME280;5407;51.234;6.804;2023-06-14T02:47:17;100868.53;;;24.03;34.29
10712;BME280;5407;51.234;6.804;2023-06-14T02:49:45;100870.63;;;24.15;33.90
10712;BME280;5407;51.234;6.804;2023-06-14T02:52:14;100872.81;;;24.04;34.17
10712;BME280;5407;51.234;6.804;2023-06-14T02:54:41;100876.56;;;24.13;33.97
10712;BME280;5407;51.234;6.804;2023-06-14T02:57:09;100883.13;;;24.71;33.38
10712;BME280;5407;51.234;6.804;2023-06-14T02:59:37;100889.06;;;24.69;32.92
10712;BME280;5407;51.234;6.804;2023-06-14T03:02:05;100882.31;;;24.03;33.81
10712;BME280;5407;51.234;6.804;2023-06-14T03:04:33;100885.94;;;23.80;34.24
10712;BME280;5407;51.234;6.804;2023-06-14T03:07:08;100896.38;;;23.70;34.50
10712;BME280;5407;51.234;6.804;2023-06-14T03:09:38;100894.19;;;23.61;34.43
10712;BME280;5407;51.234;6.804;2023-06-14T03:12:07;100898.63;;;23.74;34.17
10712;BME280;5407;51.234;6.804;2023-06-14T03:14:35;100903.97;;;24.20;33.62
10712;BME280;5407;51.234;6.804;2023-06-14T03:17:03;100902.75;;;24.89;32.80
10712;BME280;5407;51.234;6.804;2023-06-14T03:19:31;100908.84;;;25.12;32.40
10712;BME280;5407;51.234;6.804;2023-06-14T03:21:58;100911.66;;;24.64;32.81
10712;BME280;5407;51.234;6.804;2023-06-14T03:24:28;100912.34;;;24.52;33.38
10712;BME280;5407;51.234;6.804;2023-06-14T03:26:58;100912.59;;;24.90;32.54
10712;BME280;5407;51.234;6.804;2023-06-14T03:29:27;100920.28;;;24.31;33.07
10712;BME280;5407;51.234;6.804;2023-06-14T03:31:58;100919.91;;;24.13;33.70
10712;BME280;5407;51.234;6.804;2023-06-14T03:34:32;100915.50;;;23.76;34.00
10712;BME280;5407;51.234;6.804;2023-06-14T03:36:59;100921.47;;;23.75;33.93
10712;BME280;5407;51.234;6.804;2023-06-14T03:39:28;100924.47;;;24.19;33.62
10712;BME280;5407;51.234;6.804;2023-06-14T03:41:55;100921.09;;;24.47;33.31
10712;BME280;5407;51.234;6.804;2023-06-14T03:44:22;100925.56;;;23.86;33.72
10712;BME280;5407;51.234;6.804;2023-06-14T03:46:50;100927.88;;;23.69;34.12
10712;BME280;5407;51.234;6.804;2023-06-14T03:49:17;100932.13;;;23.54;34.24
10712;BME280;5407;51.234;6.804;2023-06-14T03:51:44;100932.00;;;23.99;33.90
10712;BME280;5407;51.234;6.804;2023-06-14T03:54:19;100933.34;;;23.91;33.87
10712;BME280;5407;51.234;6.804;2023-06-14T03:56:48;100934.34;;;23.16;35.08
10712;BME280;5407;51.234;6.804;2023-06-14T03:59:15;100938.13;;;23.26;34.83
10712;BME280;5407;51.234;6.804;2023-06-14T04:01:42;100943.44;;;23.36;34.92
10712;BME280;5407;51.234;6.804;2023-06-14T04:04:10;100934.22;;;23.66;34.70
10712;BME280;5407;51.234;6.804;2023-06-14T04:06:37;100947.38;;;23.77;34.48
10712;BME280;5407;51.234;6.804;2023-06-14T04:09:06;100945.41;;;23.59;34.79
10712;BME280;5407;51.234;6.804;2023-06-14T04:11:34;100945.19;;;23.88;34.44
10712;BME280;5407;51.234;6.804;2023-06-14T04:14:03;100954.41;;;23.82;34.73
10712;BME280;5407;51.234;6.804;2023-06-14T04:16:31;100953.66;;;23.59;34.73
10712;BME280;5407;51.234;6.804;2023-06-14T04:18:59;100953.34;;;23.53;34.99
10712;BME280;5407;51.234;6.804;2023-06-14T04:21:26;100953.91;;;23.87;34.37
10712;BME280;5407;51.234;6.804;2023-06-14T04:23:55;100964.88;;;23.90;34.37
10712;BME280;5407;51.234;6.804;2023-06-14T04:26:26;100966.78;;;23.51;34.83
10712;BME280;5407;51.234;6.804;2023-06-14T04:28:56;100968.50;;;23.65;34.77
10712;BME280;5407;51.234;6.804;2023-06-14T04:31:29;100967.34;;;23.62;34.79
10712;BME280;5407;51.234;6.804;2023-06-14T04:34:00;100965.84;;;23.38;35.30
10712;BME280;5407;51.234;6.804;2023-06-14T04:36:31;100971.03;;;23.33;35.47
10712;BME280;5407;51.234;6.804;2023-06-14T04:39:00;100976.91;;;23.77;35.06
10712;BME280;5407;51.234;6.804;2023-06-14T04:41:29;100981.16;;;23.81;35.03
10712;BME280;5407;51.234;6.804;2023-06-14T04:43:57;100978.31;;;23.66;35.45
10712;BME280;5407;51.234;6.804;2023-06-14T04:46:28;100978.47;;;23.13;36.17
10712;BME280;5407;51.234;6.804;2023-06-14T04:48:58;100981.44;;;22.99;36.35
10712;BME280;5407;51.234;6.804;2023-06-14T04:51:28;100987.59;;;22.80;36.80
10712;BME280;5407;51.234;6.804;2023-06-14T04:53:57;100992.28;;;23.32;36.00
10712;BME280;5407;51.234;6.804;2023-06-14T04:56:25;100991.28;;;23.23;36.14
10712;BME280;5407;51.234;6.804;2023-06-14T04:58:52;100989.47;;;23.13;36.18
10712;BME280;5407;51.234;6.804;2023-06-14T05:01:21;100998.22;;;23.54;35.18
10712;BME280;5407;51.234;6.804;2023-06-14T05:03:48;100990.56;;;23.84;34.71
10712;BME280;5407;51.234;6.804;2023-06-14T05:06:18;100997.50;;;23.27;35.44
10712;BME280;5407;51.234;6.804;2023-06-14T05:08:45;100996.53;;;23.14;35.17
10712;BME280;5407;51.234;6.804;2023-06-14T05:11:12;101007.22;;;22.82;36.37
10712;BME280;5407;51.234;6.804;2023-06-14T05:13:39;101005.13;;;23.84;34.43
10712;BME280;5407;51.234;6.804;2023-06-14T05:16:08;101012.63;;;23.84;34.71
10712;BME280;5407;51.234;6.804;2023-06-14T05:18:35;101009.38;;;23.89;34.35
10712;BME280;5407;51.234;6.804;2023-06-14T05:21:03;101009.28;;;24.12;34.21
10712;BME280;5407;51.234;6.804;2023-06-14T05:23:32;101005.91;;;24.04;34.34
10712;BME280;5407;51.234;6.804;2023-06-14T05:25:59;101005.63;;;23.99;34.52
10712;BME280;5407;51.234;6.804;2023-06-14T05:28:28;101007.88;;;23.84;34.78
10712;BME280;5407;51.234;6.804;2023-06-14T05:30:56;101012.44;;;23.72;34.92
10712;BME280;5407;51.234;6.804;2023-06-14T05:33:23;101012.53;;;23.87;35.01
10712;BME280;5407;51.234;6.804;2023-06-14T05:35:50;101002.88;;;23.57;35.25
10712;BME280;5407;51.234;6.804;2023-06-14T05:38:17;101007.47;;;23.63;35.38
10712;BME280;5407;51.234;6.804;2023-06-14T05:40:45;101005.31;;;23.51;35.30
10712;BME280;5407;51.234;6.804;2023-06-14T05:43:12;101005.16;;;23.39;35.35
10712;BME280;5407;51.234;6.804;2023-06-14T05:45:39;101008.25;;;23.41;35.35
10712;BME280;5407;51.234;6.804;2023-06-14T05:48:06;101020.13;;;23.61;34.61
10712;BME280;5407;51.234;6.804;2023-06-14T05:50:32;101023.22;;;23.85;34.66
10712;BME280;5407;51.234;6.804;2023-06-14T05:52:59;101017.84;;;23.56;35.26
10712;BME280;5407;51.234;6.804;2023-06-14T05:55:26;101025.84;;;23.24;35.89
10712;BME280;5407;51.234;6.804;2023-06-14T05:57:54;101025.66;;;23.11;35.98
10712;BME280;5407;51.234;6.804;2023-06-14T06:00:21;101026.31;;;23.87;34.91
10712;BME280;5407;51.234;6.804;2023-06-14T06:02:48;101032.56;;;24.11;34.06
10712;BME280;5407;51.234;6.804;2023-06-14T06:05:15;101027.50;;;23.86;34.33
10712;BME280;5407;51.234;6.804;2023-06-14T06:07:42;101033.75;;;24.29;33.89
10712;BME280;5407;51.234;6.804;2023-06-14T06:10:10;101033.97;;;23.76;35.04
10712;BME280;5407;51.234;6.804;2023-06-14T06:12:37;101031.06;;;23.18;35.85
10712;BME280;5407;51.234;6.804;2023-06-14T06:15:06;101035.00;;;23.17;36.15
10712;BME280;5407;51.234;6.804;2023-06-14T06:17:37;101037.81;;;23.82;35.16
10712;BME280;5407;51.234;6.804;2023-06-14T06:20:05;101034.34;;;23.10;36.27
10712;BME280;5407;51.234;6.804;2023-06-14T06:22:33;101033.88;;;23.61;35.77
10712;BME280;5407;51.234;6.804;2023-06-14T06:25:00;101039.41;;;24.22;34.73
10712;BME280;5407;51.234;6.804;2023-06-14T06:27:28;101031.38;;;23.92;34.14
10712;BME280;5407;51.234;6.804;2023-06-14T06:29:55;101041.06;;;24.59;33.82
10712;BME280;5407;51.234;6.804;2023-06-14T06:32:23;101044.06;;;24.25;34.03
10712;BME280;5407;51.234;6.804;2023-06-14T06:34:50;101043.22;;;24.67;33.54
10712;BME280;5407;51.234;6.804;2023-06-14T06:37:17;101049.03;;;24.14;33.50
10712;BME280;5407;51.234;6.804;2023-06-14T06:39:44;101044.88;;;24.06;33.67
10712;BME280;5407;51.234;6.804;2023-06-14T06:42:12;101048.03;;;24.24;33.80
10712;BME280;5407;51.234;6.804;2023-06-14T06:44:41;101048.16;;;24.76;32.66
10712;BME280;5407;51.234;6.804;2023-06-14T06:47:08;101053.34;;;24.35;33.35
10712;BME280;5407;51.234;6.804;2023-06-14T06:49:38;101059.50;;;24.23;33.83
10712;BME280;5407;51.234;6.804;2023-06-14T06:52:06;101062.25;;;24.03;32.95
10712;BME280;5407;51.234;6.804;2023-06-14T06:54:33;101053.47;;;23.89;33.51
10712;BME280;5407;51.234;6.804;2023-06-14T06:57:00;101062.03;;;24.33;33.22
10712;BME280;5407;51.234;6.804;2023-06-14T06:59:27;101068.84;;;24.48;31.96
10712;BME280;5407;51.234;6.804;2023-06-14T07:01:55;101061.28;;;24.52;32.73
10712;BME280;5407;51.234;6.804;2023-06-14T07:04:22;101075.25;;;24.03;31.10
10712;BME280;5407;51.234;6.804;2023-06-14T07:06:50;101080.44;;;24.59;31.31
10712;BME280;5407;51.234;6.804;2023-06-14T07:09:17;101073.53;;;24.51;30.61
10712;BME280;5407;51.234;6.804;2023-06-14T07:11:47;101073.56;;;25.03;30.96
10712;BME280;5407;51.234;6.804;2023-06-14T07:14:14;101077.50;;;25.37;30.23
10712;BME280;5407;51.234;6.804;2023-06-14T07:16:41;101077.50;;;24.86;30.79
10712;BME280;5407;51.234;6.804;2023-06-14T07:19:08;101080.84;;;24.77;31.55
10712;BME280;5407;51.234;6.804;2023-06-14T07:21:35;101082.16;;;24.89;31.13
10712;BME280;5407;51.234;6.804;2023-06-14T07:24:05;101084.22;;;25.20;30.28
10712;BME280;5407;51.234;6.804;2023-06-14T07:26:33;101075.75;;;24.76;31.49
10712;BME280;5407;51.234;6.804;2023-06-14T07:29:01;101091.31;;;25.53;30.76
10712;BME280;5407;51.234;6.804;2023-06-14T07:31:28;101080.44;;;25.30;31.57
10712;BME280;5407;51.234;6.804;2023-06-14T07:33:55;101080.72;;;25.51;29.55
10712;BME280;5407;51.234;6.804;2023-06-14T07:36:22;101083.47;;;24.84;30.96
10712;BME280;5407;51.234;6.804;2023-06-14T07:38:49;101080.72;;;25.00;30.21
10712;BME280;5407;51.234;6.804;2023-06-14T07:41:17;101089.69;;;25.04;29.71
10712;BME280;5407;51.234;6.804;2023-06-14T07:43:44;101088.06;;;24.71;29.45
10712;BME280;5407;51.234;6.804;2023-06-14T07:46:11;101082.00;;;25.47;29.06
10712;BME280;5407;51.234;6.804;2023-06-14T07:48:38;101089.34;;;24.86;29.13
10712;BME280;5407;51.234;6.804;2023-06-14T07:51:05;101086.56;;;24.86;29.19
10712;BME280;5407;51.234;6.804;2023-06-14T07:53:32;101079.13;;;25.50;29.15
10712;BME280;5407;51.234;6.804;2023-06-14T07:55:58;101082.41;;;25.45;28.98
10712;BME280;5407;51.234;6.804;2023-06-14T07:58:27;101089.34;;;24.86;29.60
10712;BME280;5407;51.234;6.804;2023-06-14T08:00:54;101088.75;;;24.75;29.76
10712;BME280;5407;51.234;6.804;2023-06-14T08:03:21;101097.84;;;24.76;29.74
10712;BME280;5407;51.234;6.804;2023-06-14T08:05:48;101093.91;;;25.60;29.90
10712;BME280;5407;51.234;6.804;2023-06-14T08:08:15;101101.16;;;25.38;30.02
10712;BME280;5407;51.234;6.804;2023-06-14T08:10:42;101097.97;;;25.04;29.62
10712;BME280;5407;51.234;6.804;2023-06-14T08:13:09;101098.88;;;25.17;30.22
10712;BME280;5407;51.234;6.804;2023-06-14T08:15:37;101094.44;;;25.04;30.67
10712;BME280;5407;51.234;6.804;2023-06-14T08:18:04;101095.38;;;25.33;29.72
10712;BME280;5407;51.234;6.804;2023-06-14T08:20:31;101097.41;;;25.13;29.66
10712;BME280;5407;51.234;6.804;2023-06-14T08:23:00;101094.28;;;24.75;29.26
10712;BME280;5407;51.234;6.804;2023-06-14T08:25:27;101098.50;;;24.99;29.58
10712;BME280;5407;51.234;6.804;2023-06-14T08:27:54;101096.00;;;25.40;29.89
10712;BME280;5407;51.234;6.804;2023-06-14T08:30:21;101092.34;;;25.27;30.93
10712;BME280;5407;51.234;6.804;2023-06-14T08:32:49;101102.03;;;25.83;29.28
10712;BME280;5407;51.234;6.804;2023-06-14T08:35:17;101100.44;;;25.66;29.31
10712;BME280;5407;51.234;6.804;2023-06-14T08:37:44;101098.56;;;25.63;30.15
10712;BME280;5407;51.234;6.804;2023-06-14T08:40:18;101101.06;;;25.73;29.85
10712;BME280;5407;51.234;6.804;2023-06-14T08:42:48;101098.31;;;25.41;29.77
10712;BME280;5407;51.234;6.804;2023-06-14T08:45:16;101094.19;;;26.10;29.94
10712;BME280;5407;51.234;6.804;2023-06-14T08:47:43;101099.94;;;25.71;29.70
10712;BME280;5407;51.234;6.804;2023-06-14T08:50:13;101100.84;;;24.81;30.95
10712;BME280;5407;51.234;6.804;2023-06-14T08:52:42;101103.91;;;25.03;30.78
10712;BME280;5407;51.234;6.804;2023-06-14T08:55:16;101097.28;;;26.12;30.50
10712;BME280;5407;51.234;6.804;2023-06-14T08:57:46;101090.03;;;25.57;30.39
10712;BME280;5407;51.234;6.804;2023-06-14T09:00:14;101093.03;;;25.95;30.57
10712;BME280;5407;51.234;6.804;2023-06-14T09:02:41;101094.78;;;25.41;29.85
10712;BME280;5407;51.234;6.804;2023-06-14T09:05:09;101103.41;;;25.75;29.77
10712;BME280;5407;51.234;6.804;2023-06-14T09:07:40;101094.16;;;25.18;29.76
10712;BME280;5407;51.234;6.804;2023-06-14T09:10:08;101093.81;;;25.32;30.90
10712;BME280;5407;51.234;6.804;2023-06-14T09:12:36;101093.75;;;25.51;30.63
10712;BME280;5407;51.234;6.804;2023-06-14T09:15:03;101091.06;;;25.63;30.88
10712;BME280;5407;51.234;6.804;2023-06-14T09:17:34;101105.16;;;26.13;31.07
10712;BME280;5407;51.234;6.804;2023-06-14T09:20:01;101104.81;;;26.40;30.67
10712;BME280;5407;51.234;6.804;2023-06-14T09:22:31;101112.59;;;26.45;30.22
10712;BME280;5407;51.234;6.804;2023-06-14T09:25:00;101117.72;;;25.54;30.60
10712;BME280;5407;51.234;6.804;2023-06-14T09:27:28;101115.97;;;26.08;30.35
10712;BME280;5407;51.234;6.804;2023-06-14T09:29:55;101115.56;;;25.77;29.08
10712;BME280;5407;51.234;6.804;2023-06-14T09:32:22;101114.47;;;26.19;29.65
10712;BME280;5407;51.234;6.804;2023-06-14T09:34:49;101122.00;;;26.19;29.41
10712;BME280;5407;51.234;6.804;2023-06-14T09:37:27;101120.50;;;25.54;30.07
10712;BME280;5407;51.234;6.804;2023-06-14T09:39:55;101118.63;;;25.83;30.23
10712;BME280;5407;51.234;6.804;2023-06-14T09:42:23;101123.16;;;26.05;30.05
10712;BME280;5407;51.234;6.804;2023-06-14T09:44:52;101121.41;;;26.11;28.66
10712;BME280;5407;51.234;6.804;2023-06-14T09:47:19;101125.75;;;26.12;28.84
10712;BME280;5407;51.234;6.804;2023-06-14T09:49:46;101124.69;;;26.51;28.86
10712;BME280;5407;51.234;6.804;2023-06-14T09:52:15;101132.69;;;26.61;28.34
10712;BME280;5407;51.234;6.804;2023-06-14T09:54:43;101125.53;;;26.19;28.69
10712;BME280;5407;51.234;6.804;2023-06-14T09:57:12;101128.81;;;26.59;29.02
10712;BME280;5407;51.234;6.804;2023-06-14T09:59:42;101129.28;;;26.82;27.94
10712;BME280;5407;51.234;6.804;2023-06-14T10:02:12;101129.72;;;27.09;27.88
10712;BME280;5407;51.234;6.804;2023-06-14T10:04:46;101141.44;;;27.13;27.85
10712;BME280;5407;51.234;6.804;2023-06-14T10:07:14;101133.22;;;26.28;28.30
10712;BME280;5407;51.234;6.804;2023-06-14T10:09:44;101133.03;;;26.35;28.62
10712;BME280;5407;51.234;6.804;2023-06-14T10:12:16;101137.69;;;26.09;29.43
10712;BME280;5407;51.234;6.804;2023-06-14T10:14:49;101136.78;;;26.57;28.08
10712;BME280;5407;51.234;6.804;2023-06-14T10:17:24;101135.88;;;26.31;27.86
10712;BME280;5407;51.234;6.804;2023-06-14T10:19:56;101131.91;;;25.88;28.57
10712;BME280;5407;51.234;6.804;2023-06-14T10:22:30;101138.50;;;26.91;28.42
10712;BME280;5407;51.234;6.804;2023-06-14T10:24:59;101139.00;;;27.15;28.02
10712;BME280;5407;51.234;6.804;2023-06-14T10:27:26;101131.72;;;27.33;27.34
10712;BME280;5407;51.234;6.804;2023-06-14T10:30:07;101134.59;;;27.17;27.04
10712;BME280;5407;51.234;6.804;2023-06-14T10:32:34;101130.66;;;27.02;28.03
10712;BME280;5407;51.234;6.804;2023-06-14T10:35:04;101125.06;;;27.18;27.92
10712;BME280;5407;51.234;6.804;2023-06-14T10:37:32;101122.81;;;27.01;27.34
10712;BME280;5407;51.234;6.804;2023-06-14T10:39:59;101124.63;;;27.32;27.70
10712;BME280;5407;51.234;6.804;2023-06-14T10:42:31;101123.91;;;27.53;27.23
10712;BME280;5407;51.234;6.804;2023-06-14T10:44:59;101116.28;;;26.95;27.87
10712;BME280;5407;51.234;6.804;2023-06-14T10:47:29;101115.00;;;26.43;28.11
10712;BME280;5407;51.234;6.804;2023-06-14T10:50:03;101123.88;;;26.79;27.91
10712;BME280;5407;51.234;6.804;2023-06-14T10:52:33;101120.09;;;26.44;28.12
10712;BME280;5407;51.234;6.804;2023-06-14T10:55:04;101116.47;;;27.63;27.12
10712;BME280;5407;51.234;6.804;2023-06-14T10:57:35;101113.94;;;27.68;27.00
10712;BME280;5407;51.234;6.804;2023-06-14T11:00:03;101123.22;;;27.87;26.55
10712;BME280;5407;51.234;6.804;2023-06-14T11:02:53;101121.69;;;27.61;26.96
10712;BME280;5407;51.234;6.804;2023-06-14T11:05:26;101117.38;;;28.06;26.57
10712;BME280;5407;51.234;6.804;2023-06-14T11:08:10;101122.13;;;27.59;27.09
10712;BME280;5407;51.234;6.804;2023-06-14T11:10:43;101115.94;;;27.55;27.62
10712;BME280;5407;51.234;6.804;2023-06-14T11:13:11;101116.16;;;27.73;27.73
10712;BME280;5407;51.234;6.804;2023-06-14T11:15:38;101110.22;;;28.30;26.77
10712;BME280;5407;51.234;6.804;2023-06-14T11:18:12;101134.56;;;27.42;28.03
10712;BME280;5407;51.234;6.804;2023-06-14T11:20:40;101119.78;;;27.83;27.57
10712;BME280;5407;51.234;6.804;2023-06-14T11:23:07;101113.19;;;27.18;28.24
10712;BME280;5407;51.234;6.804;2023-06-14T11:25:34;101105.25;;;28.13;27.70
10712;BME280;5407;51.234;6.804;2023-06-14T11:28:00;101109.72;;;27.01;29.03
10712;BME280;5407;51.234;6.804;2023-06-14T11:30:27;101112.88;;;27.28;28.67
10712;BME280;5407;51.234;6.804;2023-06-14T11:32:54;101096.94;;;28.47;27.52
10712;BME280;5407;51.234;6.804;2023-06-14T11:35:24;101104.91;;;28.66;27.00
10712;BME280;5407;51.234;6.804;2023-06-14T11:37:53;101102.72;;;27.59;27.99
10712;BME280;5407;51.234;6.804;2023-06-14T11:40:23;101100.41;;;28.04;27.79
10712;BME280;5407;51.234;6.804;2023-06-14T11:42:54;101100.34;;;28.50;27.40
10712;BME280;5407;51.234;6.804;2023-06-14T11:45:24;101098.34;;;29.03;26.82
10712;BME280;5407;51.234;6.804;2023-06-14T11:47:54;101104.84;;;29.09;26.83
10712;BME280;5407;51.234;6.804;2023-06-14T11:50:23;101092.97;;;29.48;26.56
10712;BME280;5407;51.234;6.804;2023-06-14T11:52:52;101095.44;;;28.85;27.22
10712;BME280;5407;51.234;6.804;2023-06-14T11:55:19;101097.13;;;29.04;26.79
10712;BME280;5407;51.234;6.804;2023-06-14T11:57:46;101084.03;;;29.53;26.42
10712;BME280;5407;51.234;6.804;2023-06-14T12:00:14;101097.44;;;29.06;26.06
10712;BME280;5407;51.234;6.804;2023-06-14T12:02:42;101091.75;;;29.49;26.92
10712;BME280;5407;51.234;6.804;2023-06-14T12:05:09;101092.63;;;28.76;26.99
10712;BME280;5407;51.234;6.804;2023-06-14T12:07:38;101093.22;;;29.41;25.93
10712;BME280;5407;51.234;6.804;2023-06-14T12:10:07;101087.91;;;29.16;26.58
10712;BME280;5407;51.234;6.804;2023-06-14T12:12:38;101093.81;;;29.84;25.97
10712;BME280;5407;51.234;6.804;2023-06-14T12:15:07;101079.47;;;30.04;25.92
10712;BME280;5407;51.234;6.804;2023-06-14T12:17:35;101086.19;;;29.58;25.65
10712;BME280;5407;51.234;6.804;2023-06-14T12:20:08;101090.25;;;29.93;25.95
10712;BME280;5407;51.234;6.804;2023-06-14T12:22:47;101092.13;;;30.40;25.61
10712;BME280;5407;51.234;6.804;2023-06-14T12:25:25;101096.44;;;30.59;25.64
10712;BME280;5407;51.234;6.804;2023-06-14T12:27:53;101094.72;;;30.53;25.44
10712;BME280;5407;51.234;6.804;2023-06-14T12:30:20;101078.94;;;30.59;25.64
10712;BME280;5407;51.234;6.804;2023-06-14T12:32:47;101097.38;;;30.29;25.24
10712;BME280;5407;51.234;6.804;2023-06-14T12:35:16;101092.88;;;30.50;25.35
10712;BME280;5407;51.234;6.804;2023-06-14T12:37:45;101095.19;;;30.51;24.97
10712;BME280;5407;51.234;6.804;2023-06-14T12:40:12;101098.94;;;31.40;24.39
10712;BME280;5407;51.234;6.804;2023-06-14T12:42:40;101089.69;;;31.58;24.40
10712;BME280;5407;51.234;6.804;2023-06-14T12:45:07;101095.88;;;31.62;24.31
10712;BME280;5407;51.234;6.804;2023-06-14T12:47:34;101091.16;;;31.21;24.54
10712;BME280;5407;51.234;6.804;2023-06-14T12:50:01;101098.31;;;30.44;25.71
10712;BME280;5407;51.234;6.804;2023-06-14T12:52:28;101102.72;;;31.84;24.02
10712;BME280;5407;51.234;6.804;2023-06-14T12:54:57;101095.03;;;31.93;23.62
10712;BME280;5407;51.234;6.804;2023-06-14T12:57:24;101098.06;;;32.04;23.67
10712;BME280;5407;51.234;6.804;2023-06-14T12:59:50;101087.25;;;32.64;23.62
10712;BME280;5407;51.234;6.804;2023-06-14T13:02:19;101083.03;;;32.69;23.51
10712;BME280;5407;51.234;6.804;2023-06-14T13:04:47;101099.91;;;32.07;23.61
10712;BME280;5407;51.234;6.804;2023-06-14T13:07:14;101092.25;;;31.70;24.28